This is the latest recevied weather packets stored in our database for station/object KD7AWQ. If no packets are shown the sender has not sent any weather packets the latest 10 day(s).
| Time | Temp. | Humidity | Pressure | Rain* | Wind** | Luminosity | Snow |
|---|---|---|---|---|---|---|---|
| 1777688053 | 21.11° C | 21% | 1181.3 hPa | 0 mm | - | 1 W/m² | - |
| 1777687750 | 21.67° C | 21% | 1181.3 hPa | 0 mm | - | 2 W/m² | - |
| 1777674114 | 25.56° C | 15% | 1180.3 hPa | 0 mm | - | 768 W/m² | - |
| 1777673810 | 25° C | 15% | 1180.5 hPa | 0 mm | - | 785 W/m² | - |
| 1777673205 | 25° C | 16% | 1180.3 hPa | 0 mm | - | 828 W/m² | - |
| 1777672294 | 25.56° C | 15% | 1180.4 hPa | 0 mm | - | 963 W/m² | - |
| 1777671989 | 25° C | 15% | 1180.2 hPa | 0 mm | - | 983 W/m² | - |
| 1777671685 | 25° C | 17% | 1180.6 hPa | 0 mm | - | 1057 W/m² | - |
| 1777671382 | 25.56° C | 16% | 1180.4 hPa | 0 mm | - | 1028 W/m² | - |
| 1777671078 | 25° C | 18% | 1180.9 hPa | 0 mm | - | 655 W/m² | - |
| 1777670775 | 25.56° C | 18% | 1180.5 hPa | 0 mm | - | 211 W/m² | - |
| 1777670472 | 25° C | 20% | 1180.6 hPa | 0 mm | - | 1077 W/m² | - |
| 1777670168 | 23.89° C | 21% | 1180.6 hPa | 0 mm | - | 1108 W/m² | - |
| 1777669866 | 23.33° C | 21% | 1181 hPa | 0 mm | - | 195 W/m² | - |
| 1777669562 | 23.89° C | 23% | 1180.7 hPa | 0 mm | - | 196 W/m² | - |
| 1777668955 | 23.89° C | 22% | 1181.2 hPa | 0 mm | - | 1143 W/m² | - |
| 1777668654 | 23.89° C | 22% | 1181.3 hPa | 0 mm | - | 242 W/m² | - |
| 1777668046 | 23.33° C | 23% | 1181.3 hPa | 0 mm | - | 1164 W/m² | - |
| 1777667742 | 22.78° C | 24% | 1181.5 hPa | 0 mm | - | 202 W/m² | - |
| 1777667440 | 23.33° C | 24% | 1181.4 hPa | 0 mm | - | 196 W/m² | - |
| 1777667137 | 22.78° C | 24% | 1181.3 hPa | 0 mm | - | 227 W/m² | - |
| 1777666533 | 23.89° C | 22% | 1181.8 hPa | 0 mm | - | 183 W/m² | - |
| 1777666227 | 23.89° C | 22% | 1181.6 hPa | 0 mm | - | 1158 W/m² | - |
| 1777665622 | 23.89° C | 24% | 1181.5 hPa | 0 mm | - | 1120 W/m² | - |
| 1777665319 | 23.33° C | 23% | 1181.8 hPa | 0 mm | - | 1095 W/m² | - |
* Rain latest hour (hover to see other rain measurements)
** Current wind speed in m/s (hover to see current wind gust speed)